Latest Weather Observations for Hobart Airport

IDT60901

Issued at 9:45 am EST Wednesday 3 September 2014 (issued every 10 minutes, with the page automatically refreshed every 10 minutes)

About weather observations | Map of Hobart area stations | Latest observations for Hobart area | Other Formats
Station Details ID: 094008 Name: HOBART AIRPORT Lat: -42.83 Lon: 147.50 Height: 4.0 m
Data from the previous 72 hours. | See also: Recent months at Hobart Airport
Date/Time
EST
Tmp

°C
App
Tmp
°C
Dew
Point
°C
Rel
Hum
%
Delta-T

°C
Wind Press
QNH
hPa
Press
MSL
hPa
Rain
since
9 am
mm
Dir
 
Spd
km/h
Gust
km/h
Spd
kts
Gust
kts
03/09:30am 10.2 5.2 3.8 64 2.8 NW 19 26 10 14 1021.0 1021.0 0.0
03/09:00am 9.8 5.5 3.3 64 2.8 NW 15 20 8 11 1021.1 1021.1 0.6
03/08:30am 8.3 3.5 2.8 68 2.3 NW 17 20 9 11 1021.1 1021.1 0.6
03/08:00am 7.2 2.7 2.1 70 2.1 NW 15 20 8 11 1021.1 1021.1 0.6
03/07:30am 5.4 0.1 1.6 76 1.5 NW 19 20 10 11 1021.0 1021.0 0.6
03/07:00am 5.3 -0.3 1.2 75 1.6 NW 20 24 11 13 1020.8 1020.8 0.6
03/06:30am 5.0 0.0 1.2 76 1.5 NW 17 19 9 10 1020.6 1020.6 0.6
03/06:00am 4.2 -0.8 1.1 80 1.2 NW 17 20 9 11 1020.5 1020.5 0.6
03/05:30am 3.9 -0.1 0.5 78 1.3 WNW 11 15 6 8 1020.4 1020.4 0.6
03/05:00am 3.6 -0.8 0.4 79 1.2 WNW 13 19 7 10 1020.3 1020.3 0.6
03/04:30am 4.2 -0.6 0.5 77 1.4 NW 15 19 8 10 1020.2 1020.2 0.6
03/04:00am 5.6 0.5 1.0 72 1.8 NW 17 24 9 13 1020.2 1020.2 0.6
03/03:30am 5.9 0.4 0.8 70 2.0 NW 19 26 10 14 1020.3 1020.3 0.6
03/03:00am 5.6 0.2 1.0 72 1.8 NW 19 20 10 11 1020.4 1020.4 0.6
03/02:30am 5.6 0.6 1.3 74 1.7 NW 17 24 9 13 1020.6 1020.6 0.6
03/02:00am 5.9 1.7 1.4 73 1.8 NNW 13 17 7 9 1020.8 1020.8 0.6
03/01:30am 6.0 1.0 1.2 71 1.9 NW 17 19 9 10 1021.1 1021.1 0.6
03/01:00am 6.1 1.0 0.7 68 2.1 NW 17 22 9 12 1021.1 1021.1 0.6
03/12:30am 5.4 0.6 2.4 81 1.2 NW 17 20 9 11 1021.0 1021.0 0.6
03/12:00am 5.1 1.4 2.4 83 1.1 NNW 11 17 6 9 1021.3 1021.3 0.6
 
Date/Time
EST
Tmp

°C
App
Tmp
°C
Dew
Point
°C
Rel
Hum
%
Delta-T

°C
Wind Press
QNH
hPa
Press
MSL
hPa
Rain
since
9 am
mm
Dir
 
Spd
km/h
Gust
km/h
Spd
kts
Gust
kts
02/11:30pm 5.0 0.9 2.0 81 1.2 WNW 13 17 7 9 1021.3 1021.3 0.6
02/11:00pm 4.8 0.9 1.2 77 1.4 WNW 11 15 6 8 1021.2 1021.2 0.6
02/10:30pm 5.7 1.9 1.7 75 1.6 WNW 11 13 6 7 1021.4 1021.4 0.6
02/10:00pm 6.0 1.6 0.6 68 2.1 W 13 15 7 8 1021.3 1021.3 0.6
02/09:30pm 6.3 1.6 0.7 67 2.2 WSW 15 19 8 10 1021.4 1021.4 0.6
02/09:00pm 6.0 1.7 0.9 70 2.0 W 13 19 7 10 1021.4 1021.4 0.6
02/08:30pm 6.7 2.7 0.6 65 2.4 W 11 13 6 7 1021.2 1021.2 0.6
02/08:00pm 7.0 3.4 0.4 63 2.6 WSW 9 11 5 6 1021.1 1021.1 0.6
02/07:30pm 6.0 3.1 2.6 79 1.4 WSW 7 9 4 5 1020.8 1020.8 0.6
02/07:00pm 7.5 4.1 1.9 67 2.3 SW 9 13 5 7 1020.6 1020.6 0.6
02/06:30pm 8.0 4.4 2.8 70 2.2 WSW 11 17 6 9 1020.4 1020.4 0.6
02/06:00pm 8.4 6.3 5.7 83 1.2 W 6 9 3 5 1020.0 1020.0 0.6
02/05:30pm 8.5 5.8 5.4 81 1.4 SSW 9 15 5 8 1019.6 1019.6 0.6
02/05:00pm 8.7 4.4 5.4 80 1.5 SW 17 20 9 11 1019.3 1019.3 0.4
02/04:30pm 9.7 4.5 3.7 66 2.6 S 20 26 11 14 1018.8 1018.8 0.4
02/04:00pm 8.9 4.0 5.1 77 1.7 S 20 32 11 17 1018.6 1018.6 0.4
02/03:30pm 9.7 3.6 5.0 72 2.1 S 26 41 14 22 1018.4 1018.4 0.2
02/03:00pm 9.3 3.0 5.6 78 1.7 S 28 35 15 19 1018.1 1018.1 0.2
02/02:30pm 10.9 5.1 4.2 63 3.0 S 24 32 13 17 1017.7 1017.7 0.2
02/02:00pm 10.7 5.3 4.4 65 2.8 S 22 28 12 15 1017.6 1017.6 0.0
02/01:30pm 11.8 6.7 0.7 46 4.6 SSW 17 30 9 16 1017.4 1017.4 0.0
02/01:00pm 12.2 7.1 1.0 46 4.7 SSW 17 26 9 14 1017.5 1017.5 0.0
02/12:30pm 11.6 6.4 0.1 45 4.7 SW 17 24 9 13 1017.7 1017.7 0.0
02/12:00pm 11.5 5.7 -0.4 44 4.8 SSW 20 30 11 16 1017.8 1017.8 0.0
02/11:30am 12.1 5.6 0.5 45 4.8 SW 24 33 13 18 1018.0 1018.0 0.0
02/11:00am 11.5 4.6 0.0 45 4.7 SW 26 33 14 18 1017.9 1017.9 0.0
02/10:30am 11.0 5.0 -1.2 42 4.8 SW 20 32 11 17 1017.9 1017.9 0.0
02/10:00am 10.6 5.0 -0.1 47 4.3 SW 19 28 10 15 1017.8 1017.8 0.0
02/09:30am 10.4 4.6 0.0 48 4.2 SW 20 24 11 13 1017.5 1017.5 0.0
02/09:00am 10.6 7.5 1.2 52 3.9 W 7 13 4 7 1017.4 1017.4 7.0
02/08:30am 9.8 4.9 -0.6 48 4.1 WSW 15 19 8 10 1017.2 1017.2 7.0
02/08:00am 9.1 5.4 0.1 53 3.6 WSW 9 13 5 7 1017.1 1017.1 7.0
02/07:30am 8.0 4.9 0.1 57 3.1 SW 6 15 3 8 1016.9 1016.9 7.0
02/07:00am 6.8 3.5 0.4 64 2.5 WSW 7 11 4 6 1016.5 1016.5 7.0
02/06:30am 7.1 2.3 0.5 63 2.6 SSW 15 20 8 11 1016.1 1016.1 7.0
02/06:00am 7.3 2.3 1.1 65 2.5 SW 17 26 9 14 1015.7 1015.7 7.0
02/05:30am 7.5 2.2 1.6 66 2.4 SW 19 26 10 14 1015.1 1015.1 7.0
02/05:00am 7.5 2.3 2.4 70 2.1 SW 19 26 10 14 1014.6 1014.6 7.0
02/04:30am 7.5 2.3 2.7 71 2.0 SW 19 28 10 15 1014.1 1014.1 7.0
02/04:00am 7.8 2.6 3.3 73 1.9 SW 20 30 11 16 1013.7 1013.7 7.0
02/03:30am 8.1 3.9 3.7 74 1.9 SSW 15 22 8 12 1013.5 1013.5 7.0
02/03:00am 8.1 2.9 3.7 74 1.9 SW 20 26 11 14 1013.3 1013.3 6.6
02/02:30am 7.9 3.3 3.5 74 1.9 SSW 17 20 9 11 1013.0 1013.0 6.6
02/02:00am 7.8 3.5 3.3 73 1.9 SW 15 22 8 12 1013.0 1013.0 6.6
02/01:30am 8.0 3.6 2.5 68 2.3 SW 15 20 8 11 1012.8 1012.8 6.6
02/01:00am 7.7 4.1 3.2 73 1.9 SW 11 15 6 8 1012.6 1012.6 6.6
02/12:30am 7.9 5.2 3.7 75 1.8 SSW 7 11 4 6 1012.3 1012.3 6.6
02/12:00am 8.1 3.2 4.2 76 1.7 SSW 19 26 10 14 1012.2 1012.2 6.6
 
Date/Time
EST
Tmp

°C
App
Tmp
°C
Dew
Point
°C
Rel
Hum
%
Delta-T

°C
Wind Press
QNH
hPa
Press
MSL
hPa
Rain
since
9 am
mm
Dir
 
Spd
km/h
Gust
km/h
Spd
kts
Gust
kts
01/11:30pm 8.2 3.7 4.3 76 1.7 SSW 17 26 9 14 1011.7 1011.7 6.6
01/11:00pm 7.8 4.7 5.6 86 1.0 SSW 11 17 6 9 1011.6 1011.6 6.6
01/10:30pm 8.7 4.8 3.6 70 2.2 WSW 13 17 7 9 1011.4 1011.4 6.2
01/10:00pm 8.9 4.1 4.4 73 2.0 SW 19 30 10 16 1010.8 1010.8 6.2
01/09:30pm 8.9 4.9 4.9 76 1.8 SW 15 19 8 10 1010.6 1010.6 6.2
01/09:00pm 9.2 5.6 5.0 75 1.9 SW 13 17 7 9 1010.0 1010.0 6.2
01/08:30pm 9.5 5.1 4.6 71 2.2 SSW 17 20 9 11 1009.5 1009.5 6.2
01/08:00pm 9.2 5.3 5.5 78 1.7 SSW 15 22 8 12 1008.9 1008.9 6.2
01/07:30pm 9.2 4.4 5.5 78 1.7 SSW 20 30 11 16 1008.7 1008.7 6.2
01/07:00pm 9.4 4.7 6.2 80 1.5 SSW 20 32 11 17 1008.1 1008.1 5.8
01/06:30pm 9.3 5.2 6.3 81 1.4 SSW 17 22 9 12 1007.5 1007.5 5.8
01/06:00pm 9.4 5.4 6.6 83 1.3 SSW 17 26 9 14 1006.9 1006.9 5.8
01/05:30pm 9.5 5.2 7.0 84 1.2 SSW 19 33 10 18 1006.2 1006.2 5.8
01/05:00pm 9.4 5.1 7.1 85 1.1 SSW 19 28 10 15 1005.6 1005.6 5.8
01/04:30pm 9.3 4.1 7.4 88 0.9 SSW 24 35 13 19 1005.0 1005.0 5.6
01/04:00pm 9.4 4.6 7.5 88 0.9 SSW 22 32 12 17 1004.2 1004.2 5.2
01/03:30pm 9.5 3.7 7.8 89 0.8 SSW 28 39 15 21 1003.7 1003.7 4.6
01/03:05pm 9.8 3.6 7.7 87 1.0 SSW 30 52 16 28 1003.2 1003.2 3.8
01/03:00pm 9.8 3.6 7.7 87 1.0 SSW 30 41 16 22 1003.0 1003.0 3.6
01/02:30pm 9.9 4.2 8.3 90 0.8 S 28 46 15 25 1002.7 1002.7 2.8
01/02:11pm 10.1 3.6 8.3 88 0.9 SSW 32 50 17 27 1002.4 1002.4 2.2
01/02:00pm 10.4 5.6 8.8 90 0.8 S 24 33 13 18 1002.3 1002.3 2.0
01/01:30pm 10.4 3.8 8.4 87 1.0 SSW 33 48 18 26 1002.1 1002.1 1.0
01/01:21pm 10.7 3.4 8.9 89 0.9 SSW 37 54 20 29 1002.0 1002.0 0.4
01/01:13pm 11.5 5.6 9.1 85 1.2 SSW 30 48 16 26 1001.7 1001.7 0.4
01/01:00pm 14.4 11.5 9.6 73 2.5 WNW 15 20 8 11 1001.5 1001.5 0.4
01/12:30pm 14.6 10.9 9.4 71 2.7 N 19 28 10 15 1001.0 1001.0 0.0
01/12:00pm 16.3 11.4 7.1 54 4.6 N 22 32 12 17 1000.8 1000.8 0.0
01/11:30am 16.5 11.3 7.3 54 4.6 N 24 33 13 18 1001.1 1001.1 0.0
01/11:00am 16.5 11.1 6.3 51 5.0 N 24 37 13 20 1001.4 1001.4 0.0
01/10:30am 16.0 10.6 6.4 53 4.7 N 24 37 13 20 1001.5 1001.5 0.0
01/10:00am 16.0 11.8 5.9 51 4.9 NNE 17 22 9 12 1002.2 1002.2 0.0
01/09:30am 15.5 11.0 6.3 54 4.5 N 19 26 10 14 1002.5 1002.5 0.0
01/09:00am 14.8 10.9 6.9 59 3.9 N 17 28 9 15 1003.1 1003.1 0.0
01/08:30am 14.6 10.1 7.1 60 3.7 N 20 30 11 16 1003.4 1003.4 0.0
01/08:00am 14.2 9.9 6.8 61 3.6 N 19 28 10 15 1003.7 1003.7 0.0
01/07:30am 13.6 10.9 7.3 65 3.1 N 11 15 6 8 1003.8 1003.8 0.0
01/07:00am 13.9 10.0 6.9 62 3.4 NNE 17 26 9 14 1004.0 1004.0 0.0
01/06:30am 14.3 10.3 6.7 60 3.7 NNE 17 24 9 13 1004.0 1004.0 0.0
01/06:00am 14.5 8.8 6.5 58 3.9 N 26 37 14 20 1004.1 1004.1 0.0
01/05:30am 14.6 9.2 6.3 57 4.0 N 24 33 13 18 1004.2 1004.2 0.0
01/05:00am 14.3 9.7 6.5 59 3.8 N 20 32 11 17 1004.5 1004.5 0.0
01/04:30am 14.0 8.7 6.8 62 3.5 N 24 39 13 21 1004.6 1004.6 0.0
01/04:00am 14.2 8.5 6.6 60 3.7 N 26 33 14 18 1004.9 1004.9 0.0
01/03:30am 14.0 9.4 6.6 61 3.6 N 20 32 11 17 1005.3 1005.3 0.0
01/03:00am 14.1 10.8 6.4 60 3.7 N 13 22 7 12 1005.7 1005.7 0.0
01/02:30am 14.4 10.6 5.8 56 4.1 N 15 28 8 15 1005.8 1005.8 0.0
01/02:00am 14.7 10.5 5.7 55 4.3 N 17 24 9 13 1006.4 1006.4 0.0
01/01:30am 14.8 9.7 5.8 55 4.3 N 22 35 12 19 1006.9 1006.9 0.0
01/01:00am 14.8 10.7 6.3 56 4.1 N 17 28 9 15 1007.7 1007.7 0.0
01/12:30am 14.3 9.7 6.4 59 3.8 N 20 30 11 16 1007.9 1007.9 0.0
01/12:00am 14.7 8.9 6.2 56 4.1 N 26 41 14 22 1008.0 1008.0 0.0
 
Date/Time
EST
Tmp

°C
App
Tmp
°C
Dew
Point
°C
Rel
Hum
%
Delta-T

°C
Wind Press
QNH
hPa
Press
MSL
hPa
Rain
since
9 am
mm
Dir
 
Spd
km/h
Gust
km/h
Spd
kts
Gust
kts
31/11:30pm 14.2 9.2 6.6 60 3.7 NNW 22 35 12 19 1008.2 1008.2 0.0
31/11:00pm 14.4 9.9 6.3 58 3.9 NNW 19 28 10 15 1008.5 1008.5 0.0
31/10:30pm 14.0 9.5 7.0 62 3.4 N 20 28 11 15 1008.9 1008.9 0.0
31/10:00pm 14.2 9.3 7.0 62 3.5 N 22 32 12 17 1009.3 1009.3 0.0
31/09:30pm 14.4 9.2 7.3 62 3.5 N 24 33 13 18 1009.5 1009.5 0.0
31/09:00pm 14.2 9.5 7.8 65 3.2 N 22 32 12 17 1009.7 1009.7 0.0
31/08:30pm 14.0 9.0 8.2 68 2.9 N 24 44 13 24 1009.9 1009.9 0.0
31/08:00pm 14.1 10.1 8.1 67 3.0 NNW 19 32 10 17 1010.3 1010.3 0.0
31/07:30pm 13.8 10.5 8.2 69 2.8 NNW 15 30 8 16 1010.5 1010.5 0.0
31/07:00pm 14.1 11.5 7.9 66 3.1 N 11 22 6 12 1010.7 1010.7 0.0
31/06:30pm 14.3 11.3 7.9 65 3.2 NNE 13 17 7 9 1010.9 1010.9 0.0
31/06:00pm 15.0 10.8 7.6 61 3.7 N 19 26 10 14 1010.7 1010.7 0.0
31/05:30pm 15.5 11.2 7.7 59 3.9 N 20 30 11 16 1010.8 1010.8 0.0
31/05:00pm 16.4 11.6 7.4 55 4.5 N 22 35 12 19 1010.7 1010.7 0.0
31/04:30pm 17.2 12.8 7.5 53 4.9 N 20 30 11 16 1010.8 1010.8 0.0
31/04:00pm 18.2 14.0 7.6 50 5.4 N 19 26 10 14 1010.8 1010.8 0.0
31/03:30pm 18.6 16.1 8.1 50 5.4 NNE 11 15 6 8 1011.1 1011.1 0.0
31/03:00pm 18.1 14.8 8.2 52 5.1 N 15 22 8 12 1011.4 1011.4 0.0
31/02:30pm 18.1 14.4 7.9 51 5.2 N 17 26 9 14 1011.7 1011.7 0.0
31/02:00pm 18.2 14.5 8.0 51 5.2 N 17 22 9 12 1012.0 1012.0 0.0
31/01:30pm 18.0 14.9 8.7 54 4.8 N 15 20 8 11 1012.4 1012.4 0.0
31/01:00pm 17.4 14.7 7.5 52 5.0 N 11 17 6 9 1012.7 1012.7 0.0
31/12:30pm 17.3 13.7 6.6 49 5.3 NW 15 19 8 10 1013.3 1013.3 0.0
31/12:00pm 16.5 12.3 5.7 49 5.2 NW 17 24 9 13 1014.0 1014.0 0.0
31/11:30am 16.8 11.9 5.3 46 5.5 NW 20 28 11 15 1014.4 1014.4 0.0
31/11:00am 15.9 11.6 5.4 49 5.0 NNW 17 26 9 14 1014.8 1014.8 0.0
31/10:30am 14.8 10.2 5.8 55 4.3 NNW 19 26 10 14 1015.3 1015.3 0.0
31/10:00am 13.8 9.2 5.5 57 3.9 N 19 28 10 15 1015.9 1015.9 0.0

Latest Capital City Observations: Canberra | Sydney | Melbourne | Brisbane | Adelaide | Perth | Hobart | Darwin

Other Formats:

Comma delimited format used in spreadsheet applications
http://www.bom.gov.au/fwo/IDT60901/IDT60901.94975.axf

JavaScript Object Notation format (JSON) in row-major order
http://www.bom.gov.au/fwo/IDT60901/IDT60901.94975.json